Cape Lisburne LRRS Airport Cape Lisburne US
ICAO: PALU
IATA:
Category: Medium
Scheduled Services:

Elevation: 16 ft
TransAlt. 18000 ft.

Airport Communications:
ANCHORAGE CNTR:119.65
KOTZEBUE RDO:122.3
CTAF/UNICOM:126.2

PALU Zoom In..

If you have problems with the map follow the link
https://www.worldairports.se/pages/airport.php?
ICAO=PALU

Runways:

(A) RW 08 length 4805 ft width 135 ft
---- / hdg 84

(B) RW 26 length 4805 ft width 135 ft
---- / hdg 264

Location; PALU
Day. 23 / Time. 18.55 Zulu
* Altimeter: 29.68
* Temperature: -02° c. -28.4°f.
* Wind from: 070° Speed 20 kn.
Dewpoint: -04° c.
Visibility: 10 Statute Miles.
Clouds: Broken 1600 ft.

PALU 231855Z AUTO 07020KT 10SM BKN016 M02/M04 A2968 RMK AO2 PK WND 07029/1833 SLP049 T10201042 $


Wind From 070°
Speed 20 kn.

 
 
jpsmedia.com for Web Design worldairports.se 2018   terms of use